Time;durP1;ratioP1;P1;durP2;ratioP2;P2;SDS_P1;SDS_P2;PMS_P1;PMS_P2;Temp;Humidity;BMP_temperature;BMP_pressure;BME280_temperature;BME280_humidity;BME280_pressure;Samples;Min_cycle;Max_cycle;Signal;HPM_P1;HPM_P2
2021/09/20 04:16:30;;;;;;;10.10;6.25;;;;;;;13.23;90.45;98821.34;5485746;23;20644;-76
2021/09/20 04:18:55;;;;;;;12.05;7.90;;;;;;;12.90;91.67;98821.31;4995286;28;20042;-76
2021/09/20 04:21:20;;;;;;;8.13;7.07;;;;;;;12.92;92.14;98823.91;4995019;28;20041;-76
2021/09/20 04:23:46;;;;;;;6.72;6.10;;;;;;;13.01;92.54;98829.72;4995118;28;20037;-76
2021/09/20 04:26:11;;;;;;;9.13;6.88;;;;;;;13.06;92.37;98830.44;4995021;28;20072;-76
2021/09/20 04:28:37;;;;;;;7.55;6.50;;;;;;;13.03;91.56;98825.31;4986815;28;20096;-70
2021/09/20 04:31:02;;;;;;;8.48;6.13;;;;;;;12.96;91.57;98831.59;4975043;28;20046;-70
2021/09/20 04:33:27;;;;;;;9.63;6.22;;;;;;;12.92;91.81;98829.97;4978436;28;20023;-70
2021/09/20 04:35:53;;;;;;;7.13;6.15;;;;;;;12.90;92.22;98836.09;4975029;28;20031;-70
2021/09/20 04:38:18;;;;;;;11.98;6.28;;;;;;;13.06;91.94;98838.25;4976778;28;20111;-70
2021/09/20 04:40:44;;;;;;;8.05;6.93;;;;;;;13.28;91.01;98835.06;4975121;28;20514;-70
2021/09/20 04:43:12;;;;;;;11.02;6.00;;;;;;;13.11;91.22;98836.38;4976049;28;20037;-70
2021/09/20 04:45:39;;;;;;;9.93;6.05;;;;;;;13.20;91.50;98839.59;4974694;28;20069;-70
2021/09/20 04:48:09;;;;;;;7.80;6.40;;;;;;;13.17;91.27;98839.69;4974541;28;20109;-70
2021/09/20 04:50:35;;;;;;;6.70;6.10;;;;;;;13.25;90.77;98848.19;4973503;28;20015;-68
2021/09/20 04:53:00;;;;;;;6.72;6.03;;;;;;;13.17;90.76;98848.34;4974744;28;20027;-70
2021/09/20 04:55:25;;;;;;;8.27;6.43;;;;;;;13.00;91.90;98850.53;4978960;28;20019;-70
2021/09/20 04:57:51;;;;;;;7.32;6.10;;;;;;;12.77;93.99;98851.16;4974810;28;20054;-71
2021/09/20 05:00:16;;;;;;;8.70;5.97;;;;;;;12.75;94.67;98851.19;4974885;28;20089;-70
2021/09/20 05:02:42;;;;;;;10.70;6.35;;;;;;;12.71;94.99;98851.31;4974871;28;20026;-70
2021/09/20 05:05:08;;;;;;;7.97;6.22;;;;;;;12.78;94.20;98852.88;4975260;28;20027;-70
2021/09/20 05:07:35;;;;;;;8.20;5.75;;;;;;;12.76;94.58;98855.50;4980931;28;20023;-70
2021/09/20 05:10:00;;;;;;;7.15;6.13;;;;;;;12.75;95.18;98853.78;4978937;28;20084;-70
2021/09/20 05:12:26;;;;;;;7.38;6.68;;;;;;;12.82;95.14;98854.50;4985061;28;20031;-70
2021/09/20 05:14:51;;;;;;;6.95;6.25;;;;;;;12.86;94.58;98856.09;4983465;28;20026;-70
2021/09/20 05:17:16;;;;;;;7.75;6.18;;;;;;;12.75;95.01;98860.75;4982210;28;20035;-70
2021/09/20 05:19:42;;;;;;;11.70;6.40;;;;;;;12.73;95.53;98862.53;4981329;28;20033;-70
2021/09/20 05:22:07;;;;;;;8.38;6.95;;;;;;;12.89;95.40;98865.59;4978521;28;20512;-70
2021/09/20 05:24:32;;;;;;;12.75;7.25;;;;;;;12.71;95.46;98872.09;4976771;28;20451;-70
2021/09/20 05:26:58;;;;;;;8.63;6.78;;;;;;;12.77;95.54;98874.56;4979965;28;20034;-70
2021/09/20 05:29:23;;;;;;;6.72;5.95;;;;;;;13.04;93.41;98863.44;4975772;28;20035;-70
2021/09/20 05:31:49;;;;;;;9.32;6.55;;;;;;;13.01;93.21;98866.13;4983000;28;20156;-70
2021/09/20 05:34:14;;;;;;;8.00;6.15;;;;;;;13.01;92.78;98876.53;4977261;28;20488;-70
2021/09/20 05:36:39;;;;;;;9.88;6.65;;;;;;;13.17;92.30;98870.91;4974693;28;20101;-70
2021/09/20 05:39:05;;;;;;;7.13;6.43;;;;;;;13.36;91.46;98870.41;4981488;28;20081;-70
2021/09/20 05:41:30;;;;;;;9.30;6.07;;;;;;;13.35;91.43;98875.66;4977641;28;20629;-70
2021/09/20 05:43:56;;;;;;;7.05;6.35;;;;;;;13.41;91.31;98874.63;4981535;28;20434;-70
2021/09/20 05:46:21;;;;;;;13.60;6.40;;;;;;;13.44;91.09;98885.81;4982521;28;20033;-70
2021/09/20 05:48:46;;;;;;;10.63;6.65;;;;;;;13.45;90.47;98881.47;4982128;28;20388;-70
2021/09/20 05:51:12;;;;;;;7.30;6.30;;;;;;;13.34;91.25;98885.22;4977105;28;20059;-70
2021/09/20 05:53:38;;;;;;;8.98;6.30;;;;;;;13.69;90.61;98890.34;4978051;28;20085;-70
2021/09/20 05:56:04;;;;;;;9.38;5.88;;;;;;;13.51;90.17;98887.34;4980803;28;20046;-70
2021/09/20 05:58:29;;;;;;;9.85;5.57;;;;;;;13.61;89.98;98891.38;4979716;28;20027;-70
2021/09/20 06:00:54;;;;;;;10.75;5.97;;;;;;;13.57;90.89;98897.56;4975171;28;20029;-70
2021/09/20 06:03:20;;;;;;;8.65;5.75;;;;;;;13.46;90.95;98894.44;4967982;28;20058;-70
2021/09/20 06:05:46;;;;;;;7.97;5.55;;;;;;;13.44;91.74;98890.16;4969607;28;20399;-70
2021/09/20 06:08:11;;;;;;;7.60;5.47;;;;;;;13.79;91.01;98896.97;4984041;28;20077;-70
2021/09/20 06:10:38;;;;;;;6.47;5.80;;;;;;;13.90;90.60;98900.13;4975665;28;20034;-70
2021/09/20 06:13:06;;;;;;;7.53;5.53;;;;;;;14.05;89.65;98909.22;4976984;28;20029;-70
2021/09/20 06:15:33;;;;;;;8.77;5.20;;;;;;;14.10;88.47;98897.75;4974736;28;20026;-70
2021/09/20 06:17:58;;;;;;;8.57;5.72;;;;;;;14.07;88.43;98903.09;4973854;28;20054;-72
2021/09/20 06:20:24;;;;;;;5.88;5.30;;;;;;;14.25;88.02;98896.44;4978765;28;20105;-70
2021/09/20 06:22:49;;;;;;;8.27;5.25;;;;;;;14.23;87.53;98907.81;4980040;28;20031;-70
2021/09/20 06:25:15;;;;;;;10.85;5.90;;;;;;;14.12;87.44;98898.59;4973707;28;20069;-69
2021/09/20 06:27:41;;;;;;;5.88;5.32;;;;;;;14.22;86.79;98906.13;4973459;28;20078;-70
2021/09/20 06:30:08;;;;;;;6.50;5.72;;;;;;;14.28;86.70;98901.56;4973089;28;20160;-70
2021/09/20 06:32:33;;;;;;;7.82;5.68;;;;;;;14.20;87.18;98905.31;4979195;28;20030;-70
2021/09/20 06:34:59;;;;;;;8.18;5.55;;;;;;;14.39;86.31;98903.81;4978663;28;20053;-69
2021/09/20 06:37:24;;;;;;;6.47;5.43;;;;;;;14.42;85.63;98901.13;4972868;28;20113;-70
2021/09/20 06:39:49;;;;;;;8.07;5.43;;;;;;;14.25;86.50;98900.78;4972944;28;20026;-69
2021/09/20 06:42:15;;;;;;;7.30;5.30;;;;;;;14.26;87.31;98907.72;4978697;28;20022;-70
2021/09/20 06:44:40;;;;;;;8.60;5.60;;;;;;;14.44;85.79;98909.75;4977474;28;20105;-70
2021/09/20 06:47:07;;;;;;;6.15;5.57;;;;;;;14.24;86.29;98909.53;4973728;28;20047;-70
2021/09/20 06:49:33;;;;;;;6.63;5.78;;;;;;;14.05;87.43;98910.06;4974942;28;20073;-70
2021/09/20 06:51:58;;;;;;;9.50;6.28;;;;;;;14.24;86.51;98912.13;4973868;28;20026;-70
2021/09/20 06:54:23;;;;;;;10.13;6.75;;;;;;;14.14;86.00;98909.81;4974350;28;20511;-70
2021/09/20 06:56:49;;;;;;;8.00;6.90;;;;;;;14.18;86.08;98909.72;4974848;28;20106;-70
2021/09/20 06:59:15;;;;;;;9.30;6.18;;;;;;;14.04;86.29;98918.78;4979630;28;20523;-70
2021/09/20 07:01:40;;;;;;;9.73;7.40;;;;;;;14.04;87.01;98918.78;4972424;28;20391;-70
2021/09/20 07:04:06;;;;;;;6.47;5.80;;;;;;;14.23;85.30;98919.09;4972685;28;20085;-70
2021/09/20 07:06:31;;;;;;;6.88;6.20;;;;;;;14.01;86.59;98916.28;4972396;28;20046;-70
2021/09/20 07:08:57;;;;;;;6.75;5.85;;;;;;;14.04;88.16;98912.75;4973486;28;20379;-69
2021/09/20 07:11:23;;;;;;;9.85;6.50;;;;;;;13.94;87.19;98906.94;4974116;28;20038;-70
2021/09/20 07:13:48;;;;;;;6.88;6.18;;;;;;;14.18;87.01;98909.72;4987018;28;20022;-70
2021/09/20 07:16:13;;;;;;;7.85;6.35;;;;;;;14.26;86.00;98910.31;4980091;28;20031;-70
2021/09/20 07:18:39;;;;;;;7.07;6.35;;;;;;;14.25;86.01;98927.72;4983389;28;20366;-70
2021/09/20 07:21:05;;;;;;;8.07;6.85;;;;;;;14.17;85.63;98918.41;4985186;28;20054;-70
2021/09/20 07:23:30;;;;;;;7.72;6.20;;;;;;;14.19;86.47;98919.22;4976255;28;20019;-70
2021/09/20 07:25:55;;;;;;;7.65;6.03;;;;;;;14.31;86.56;98916.25;4977150;28;20126;-70
2021/09/20 07:28:21;;;;;;;8.50;6.32;;;;;;;14.36;85.02;98916.97;4976510;28;20111;-70
2021/09/20 07:30:46;;;;;;;6.30;5.70;;;;;;;14.35;84.51;98928.28;4981851;28;20110;-70
2021/09/20 07:33:12;;;;;;;7.18;6.18;;;;;;;14.40;84.35;98921.16;4977479;28;20026;-70
2021/09/20 07:35:37;;;;;;;6.05;5.45;;;;;;;14.48;83.82;98919.22;4975938;28;20038;-70
2021/09/20 07:38:03;;;;;;;8.70;5.97;;;;;;;14.51;83.30;98924.34;4979759;28;20058;-70
2021/09/20 07:40:29;;;;;;;6.05;5.45;;;;;;;14.79;82.48;98921.69;4979547;28;20018;-70
2021/09/20 07:42:57;;;;;;;6.00;5.40;;;;;;;14.57;82.74;98924.16;4976382;28;20365;-70
2021/09/20 07:45:22;;;;;;;7.45;5.80;;;;;;;14.45;82.86;98934.91;4975690;28;20546;-70
2021/09/20 07:47:48;;;;;;;7.22;6.05;;;;;;;14.59;82.30;98931.91;4978960;28;20030;-70
2021/09/20 07:50:15;;;;;;;6.25;5.53;;;;;;;14.81;82.44;98934.69;4978235;28;20037;-70
2021/09/20 07:52:42;;;;;;;6.15;5.55;;;;;;;14.83;81.60;98925.91;4984004;28;20033;-70
2021/09/20 07:55:07;;;;;;;7.10;5.85;;;;;;;14.49;83.18;98933.97;4978925;28;20031;-70
2021/09/20 07:57:33;;;;;;;9.15;6.30;;;;;;;14.13;85.67;98939.38;4975430;28;20023;-70
2021/09/20 07:59:59;;;;;;;7.03;6.43;;;;;;;14.10;86.35;98938.59;4977174;28;20505;-70
2021/09/20 08:02:24;;;;;;;12.13;6.65;;;;;;;14.29;86.45;98938.91;4980398;28;20058;-70
2021/09/20 08:04:49;;;;;;;7.82;7.05;;;;;;;14.37;85.32;98935.16;4975828;28;20530;-70
2021/09/20 08:07:14;;;;;;;10.65;5.93;;;;;;;14.51;84.60;98933.94;4982615;28;20109;-70
2021/09/20 08:09:40;;;;;;;7.63;5.50;;;;;;;14.61;84.00;98941.41;4975517;28;20035;-70
2021/09/20 08:12:05;;;;;;;7.95;5.88;;;;;;;14.58;83.87;98941.50;4975282;28;20026;-70
2021/09/20 08:14:31;;;;;;;8.95;5.78;;;;;;;14.80;83.09;98940.81;4981952;28;20026;-70
2021/09/20 08:16:56;;;;;;;8.40;6.15;;;;;;;14.77;83.80;98946.13;4986231;28;20041;-70
2021/09/20 08:19:22;;;;;;;6.80;5.72;;;;;;;14.62;84.31;98950.06;4983433;28;20018;-70
2021/09/20 08:21:48;;;;;;;8.18;5.22;;;;;;;14.48;85.21;98955.72;4980569;28;20034;-69
2021/09/20 08:24:14;;;;;;;8.23;6.22;;;;;;;14.59;84.67;98948.41;4975111;28;20038;-70
2021/09/20 08:26:40;;;;;;;10.80;5.75;;;;;;;14.31;85.41;98953.63;4981888;28;20023;-70
2021/09/20 08:29:05;;;;;;;16.25;5.60;;;;;;;14.35;84.98;98954.34;4982997;28;20015;-70
2021/09/20 08:31:31;;;;;;;7.57;5.68;;;;;;;14.78;83.05;98955.66;4974827;28;20026;-70
2021/09/20 08:33:56;;;;;;;13.07;6.45;;;;;;;14.49;84.95;98957.41;4979415;28;20026;-70
2021/09/20 08:36:22;;;;;;;6.80;5.53;;;;;;;14.72;83.94;98954.09;4977972;28;20468;-70
2021/09/20 08:38:47;;;;;;;8.70;5.85;;;;;;;14.89;82.81;98963.97;4981873;28;20519;-69
2021/09/20 08:41:15;;;;;;;12.68;6.63;;;;;;;14.90;82.81;98955.28;4979955;28;20166;-69
2021/09/20 08:43:41;;;;;;;9.40;6.07;;;;;;;14.93;82.95;98954.31;4980457;28;20395;-70
2021/09/20 08:46:07;;;;;;;9.25;6.65;;;;;;;15.10;80.96;98965.03;4979834;28;20531;-70
2021/09/20 08:48:40;;;;;;;8.15;6.45;;;;;;;15.07;81.60;98966.00;4981371;28;20097;-70
2021/09/20 08:51:05;;;;;;;13.05;6.88;;;;;;;15.03;81.57;98964.38;4978873;28;20561;-70
2021/09/20 08:53:31;;;;;;;10.57;6.88;;;;;;;14.99;81.46;98970.63;4982386;28;20031;-70
2021/09/20 08:55:58;;;;;;;8.40;6.47;;;;;;;15.14;81.36;98972.72;4974355;28;20080;-70
2021/09/20 08:58:24;;;;;;;19.20;7.85;;;;;;;15.31;80.46;98972.16;4974382;28;20046;-70
2021/09/20 09:00:49;;;;;;;13.52;7.45;;;;;;;15.31;81.00;98973.91;4982076;28;20047;-69
2021/09/20 09:03:19;;;;;;;8.35;6.20;;;;;;;15.38;81.15;98978.03;4980007;28;20046;-70
2021/09/20 09:05:47;;;;;;;7.97;6.22;;;;;;;15.38;80.97;98976.25;4975792;28;20503;-69
2021/09/20 09:08:17;;;;;;;8.80;6.45;;;;;;;15.24;81.07;98975.03;4975067;28;20038;-70
2021/09/20 09:10:43;;;;;;;8.70;5.75;;;;;;;15.61;79.37;98977.22;4974372;28;20035;-70
2021/09/20 09:13:11;;;;;;;7.00;6.22;;;;;;;15.71;78.79;98977.75;4974228;28;20119;-69
2021/09/20 09:15:37;;;;;;;8.20;6.70;;;;;;;15.67;79.87;98982.28;4975799;28;20061;-70
2021/09/20 09:18:04;;;;;;;9.60;6.47;;;;;;;15.54;79.10;98976.56;4976925;28;20089;-70
2021/09/20 09:20:36;;;;;;;11.55;6.95;;;;;;;15.11;80.57;98987.63;4985894;28;20177;-70
2021/09/20 09:23:10;;;;;;;12.13;6.18;;;;;;;15.26;81.45;98984.50;4973861;28;20018;-70
2021/09/20 09:25:54;;;;;;;10.63;6.80;;;;;;;14.94;81.07;98990.81;4974241;28;20030;-70
2021/09/20 09:28:23;;;;;;;8.40;6.60;;;;;;;15.00;81.70;98984.53;4973864;28;20615;-70
2021/09/20 09:30:52;;;;;;;7.68;6.28;;;;;;;15.57;79.17;98986.94;4974066;28;20080;-70
2021/09/20 09:33:22;;;;;;;6.88;5.97;;;;;;;15.26;80.11;98991.47;4976740;28;20535;-70
2021/09/20 09:35:53;;;;;;;6.97;5.65;;;;;;;15.58;79.06;98999.06;4978954;28;20045;-70
2021/09/20 09:38:20;;;;;;;7.10;6.40;;;;;;;15.61;78.72;98988.50;4974871;28;20503;-70
2021/09/20 09:40:55;;;;;;;8.02;6.05;;;;;;;16.04;76.24;98987.00;4983849;28;20105;-69
2021/09/20 09:43:25;;;;;;;7.43;6.20;;;;;;;16.16;76.01;98985.72;4976508;28;20511;-70
2021/09/20 09:45:51;;;;;;;6.57;5.65;;;;;;;16.13;75.70;98991.88;4973673;28;20485;-70
2021/09/20 09:48:22;;;;;;;8.13;5.82;;;;;;;16.64;74.25;98988.22;4979469;28;20109;-70
2021/09/20 09:50:53;;;;;;;6.25;5.40;;;;;;;16.91;73.02;98980.19;4976537;28;20050;-70
2021/09/20 09:53:24;;;;;;;7.05;6.35;;;;;;;16.68;73.27;98983.69;4973066;28;20022;-70
2021/09/20 09:55:50;;;;;;;8.82;5.90;;;;;;;16.83;72.43;98979.66;4975971;28;20658;-70
2021/09/20 09:58:16;;;;;;;32.72;19.85;;;;;;;17.05;71.99;98983.09;4975994;28;20010;-70
2021/09/20 10:00:44;;;;;;;8.05;6.10;;;;;;;17.06;71.67;98974.31;4980747;28;20101;-69
2021/09/20 10:03:09;;;;;;;7.78;5.97;;;;;;;16.88;71.65;98982.94;4974972;28;20030;-69
2021/09/20 10:05:34;;;;;;;7.05;6.18;;;;;;;17.17;71.98;98982.59;4976632;28;20034;-69
2021/09/20 10:08:09;;;;;;;30.00;7.90;;;;;;;17.33;71.24;98981.97;4984241;28;20026;-69
2021/09/20 10:10:35;;;;;;;7.03;5.57;;;;;;;17.46;69.90;98977.91;4973542;28;20554;-69
2021/09/20 10:13:04;;;;;;;6.45;5.85;;;;;;;16.98;71.67;98988.66;4972945;28;20035;-69
2021/09/20 10:15:31;;;;;;;7.88;5.75;;;;;;;16.91;72.14;98985.44;4973379;28;20101;-69
2021/09/20 10:17:57;;;;;;;10.75;6.10;;;;;;;16.92;71.90;98984.50;4977001;28;20019;-69
2021/09/20 10:20:26;;;;;;;9.68;5.75;;;;;;;16.70;73.05;98987.97;4981789;28;20031;-69
2021/09/20 10:22:52;;;;;;;8.65;5.82;;;;;;;16.79;73.35;98985.94;4977591;28;20038;-69
2021/09/20 10:25:21;;;;;;;10.00;6.18;;;;;;;16.75;73.62;98986.97;4973097;28;20373;-69
2021/09/20 10:27:47;;;;;;;7.63;6.72;;;;;;;16.04;75.62;98992.22;4972580;28;20502;-69
2021/09/20 10:30:48;;;;;;;7.45;6.68;;;;;;;16.06;75.56;98993.03;4995751;23;20046;-68
2021/09/20 10:33:13;;;;;;;7.53;6.03;;;;;;;16.22;76.69;98989.84;4943384;28;20468;-68
2021/09/20 10:35:52;;;;;;;9.18;6.75;;;;;;;16.23;75.40;98994.16;4966414;28;20030;-70
2021/09/20 10:38:20;;;;;;;11.10;6.25;;;;;;;16.20;75.38;98995.16;4964358;28;20058;-71
2021/09/20 10:41:22;;;;;;;10.27;6.50;;;;;;;16.49;75.28;98993.16;4962278;28;20023;-71
2021/09/20 10:44:06;;;;;;;9.32;6.50;;;;;;;16.06;75.46;98987.81;4973844;28;20508;-71
2021/09/20 10:46:34;;;;;;;7.15;6.18;;;;;;;16.01;76.08;98987.13;4966466;28;20030;-70
2021/09/20 10:49:02;;;;;;;8.80;6.32;;;;;;;16.12;76.86;98982.34;4964042;28;20094;-70
2021/09/20 10:51:39;;;;;;;6.68;5.28;;;;;;;16.25;76.59;98989.75;4965243;28;20034;-70
2021/09/20 10:54:20;;;;;;;8.55;6.72;;;;;;;16.04;76.59;98989.63;4965571;28;20066;-69
2021/09/20 10:56:55;;;;;;;8.38;6.80;;;;;;;16.06;75.85;98993.03;4963435;28;20147;-70
2021/09/20 10:59:24;;;;;;;7.70;5.85;;;;;;;16.36;75.38;98990.19;4965026;28;20026;-70
2021/09/20 11:01:58;;;;;;;8.00;7.25;;;;;;;16.35;74.61;98991.09;4968950;28;20114;-71
2021/09/20 11:04:30;;;;;;;12.93;7.32;;;;;;;16.38;75.38;98985.75;4965942;28;20038;-71
2021/09/20 11:07:16;;;;;;;8.32;6.50;;;;;;;16.58;74.02;98985.81;4965145;28;20504;-71
2021/09/20 11:09:50;;;;;;;6.63;5.93;;;;;;;16.67;73.56;98982.84;4965743;28;20027;-71
2021/09/20 11:12:19;;;;;;;8.40;7.22;;;;;;;16.57;74.30;98986.72;4971513;28;20051;-71
2021/09/20 11:14:51;;;;;;;8.05;6.50;;;;;;;16.68;74.56;98981.06;4970427;28;20074;-71
2021/09/20 11:17:17;;;;;;;6.80;6.20;;;;;;;16.83;73.59;98977.06;4967836;28;20038;-71
2021/09/20 11:19:45;;;;;;;9.30;6.75;;;;;;;16.92;72.68;98976.66;4970262;28;20023;-71
2021/09/20 11:22:21;;;;;;;8.82;6.35;;;;;;;16.48;74.50;98981.84;4966246;28;20026;-71
2021/09/20 11:24:48;;;;;;;9.23;6.05;;;;;;;16.58;73.72;98983.19;4969830;28;20019;-71
2021/09/20 11:27:29;;;;;;;11.95;6.60;;;;;;;16.69;72.66;98986.25;4967865;28;20047;-72
2021/09/20 11:29:58;;;;;;;9.45;6.28;;;;;;;16.89;72.21;98979.41;4964167;28;20034;-71
2021/09/20 11:32:24;;;;;;;8.40;6.03;;;;;;;16.93;71.63;98981.00;4968623;28;20030;-71
2021/09/20 11:34:54;;;;;;;6.85;6.15;;;;;;;16.92;71.75;98984.50;4961611;28;20119;-71
2021/09/20 11:37:26;;;;;;;8.02;6.63;;;;;;;16.77;73.65;98987.75;4967863;28;20026;-71
2021/09/20 11:40:06;;;;;;;6.82;6.07;;;;;;;16.90;72.83;98989.81;4967926;28;20503;-71
2021/09/20 11:42:38;;;;;;;7.82;6.28;;;;;;;16.70;72.98;98994.97;4967932;28;20093;-72
2021/09/20 11:45:19;;;;;;;6.20;5.60;;;;;;;16.56;73.34;98995.50;4971413;28;20046;-71
2021/09/20 11:47:48;;;;;;;6.40;5.72;;;;;;;16.68;74.04;99005.50;4969770;28;20066;-71
2021/09/20 11:50:21;;;;;;;11.77;6.00;;;;;;;16.85;72.54;98996.16;4966019;28;20269;-72
2021/09/20 11:52:49;;;;;;;7.15;6.45;;;;;;;17.06;72.05;99000.50;4970790;28;20038;-72
2021/09/20 11:55:21;;;;;;;12.50;6.55;;;;;;;17.19;70.58;98999.09;4967652;28;20023;-72
2021/09/20 11:57:50;;;;;;;8.25;6.57;;;;;;;17.15;71.78;99005.38;4972886;28;20062;-71
2021/09/20 12:00:18;;;;;;;10.00;6.75;;;;;;;17.33;70.89;99000.31;4969605;28;20030;-71
2021/09/20 12:02:52;;;;;;;6.90;6.13;;;;;;;17.42;70.59;99002.53;4965118;28;20074;-71
2021/09/20 12:05:28;;;;;;;10.65;8.68;;;;;;;17.40;70.59;98999.09;4971158;28;20022;-71
2021/09/20 12:08:04;;;;;;;7.97;5.82;;;;;;;17.51;70.41;99002.16;4965824;28;20054;-71
2021/09/20 12:10:39;;;;;;;6.45;5.85;;;;;;;17.01;71.89;99010.31;4974882;28;20504;-71
2021/09/20 12:13:10;;;;;;;6.70;5.65;;;;;;;17.35;70.82;99008.94;4971602;28;20026;-71
2021/09/20 12:15:37;;;;;;;7.13;5.82;;;;;;;17.57;70.59;99007.13;4974216;28;20027;-71
2021/09/20 12:18:04;;;;;;;5.80;5.20;;;;;;;17.17;70.99;99014.03;4974678;28;20019;-70
2021/09/20 12:20:44;;;;;;;6.53;4.88;;;;;;;17.76;70.35;99011.59;4969242;28;20036;-70
2021/09/20 12:23:18;;;;;;;5.20;4.70;;;;;;;18.19;67.88;99006.16;4970900;28;20272;-71
2021/09/20 12:25:45;;;;;;;6.45;5.15;;;;;;;18.77;66.47;99012.28;4966934;28;20035;-74
2021/09/20 12:28:21;;;;;;;6.03;5.15;;;;;;;19.19;64.26;99010.19;4971842;28;20049;-73
2021/09/20 12:30:51;;;;;;;21.10;15.40;;;;;;;19.32;64.16;99004.31;4966722;28;20408;-75
2021/09/20 12:33:16;;;;;;;8.00;5.30;;;;;;;19.36;62.86;99005.88;4972624;28;20088;-71
2021/09/20 12:35:42;;;;;;;5.43;4.95;;;;;;;19.65;61.94;99007.91;4966064;28;20547;-71
2021/09/20 12:38:18;;;;;;;6.47;5.88;;;;;;;18.70;65.92;99007.31;4960129;28;20054;-74
2021/09/20 12:40:45;;;;;;;6.07;4.93;;;;;;;19.38;62.27;99007.50;4972400;28;20027;-71
2021/09/20 12:43:22;;;;;;;5.43;4.93;;;;;;;19.63;61.93;99014.16;4974301;28;20033;-75
2021/09/20 12:45:48;;;;;;;6.28;5.68;;;;;;;18.45;65.72;99015.44;4969134;28;20511;-73
2021/09/20 12:48:15;;;;;;;5.82;4.88;;;;;;;19.31;63.12;99013.16;4973915;28;20066;-73
2021/09/20 12:50:46;;;;;;;7.10;6.15;;;;;;;18.88;63.19;99010.84;4973082;28;20160;-71
2021/09/20 12:53:20;;;;;;;6.85;5.65;;;;;;;18.30;63.97;99004.81;4973506;28;20485;-74
2021/09/20 12:55:47;;;;;;;5.70;4.88;;;;;;;19.00;64.44;99014.63;4971340;28;20027;-73
2021/09/20 12:58:27;;;;;;;7.05;5.28;;;;;;;19.17;62.44;99012.03;4974415;28;20042;-71
2021/09/20 13:00:55;;;;;;;6.38;4.97;;;;;;;19.38;61.72;98998.75;4973203;28;20027;-74
2021/09/20 13:03:33;;;;;;;8.27;5.80;;;;;;;19.46;61.24;99001.84;4964847;28;20531;-73
2021/09/20 13:06:02;;;;;;;6.25;5.65;;;;;;;18.85;62.67;99010.13;4964165;28;20027;-75
2021/09/20 13:08:28;;;;;;;6.30;5.07;;;;;;;19.41;61.96;98998.63;4961772;28;20524;-72
2021/09/20 13:10:54;;;;;;;8.27;6.97;;;;;;;20.14;60.01;98999.22;4970363;28;20027;-73
2021/09/20 13:13:33;;;;;;;7.50;5.65;;;;;;;19.27;59.93;99013.28;4973079;28;20484;-73
2021/09/20 13:15:59;;;;;;;5.88;5.28;;;;;;;19.14;60.46;99006.94;4961917;28;20034;-75
2021/09/20 13:18:25;;;;;;;5.47;4.97;;;;;;;18.96;61.87;99011.31;4972885;28;20027;-74
2021/09/20 13:20:53;;;;;;;7.03;5.40;;;;;;;18.85;61.89;99007.50;4970570;28;20389;-75
2021/09/20 13:23:19;;;;;;;6.78;5.55;;;;;;;18.56;63.01;99008.84;4970692;28;20025;-76
2021/09/20 13:25:55;;;;;;;6.00;5.22;;;;;;;18.23;63.42;99006.88;4967484;28;20031;-75
2021/09/20 13:28:33;;;;;;;6.13;5.50;;;;;;;18.47;63.46;99010.16;4967206;28;20053;-75
2021/09/20 13:31:00;;;;;;;5.88;5.28;;;;;;;18.62;63.02;99016.44;4965094;28;20038;-76
2021/09/20 13:33:27;;;;;;;5.55;4.97;;;;;;;18.87;62.90;99018.78;4965841;28;20018;-76
2021/09/20 13:36:01;;;;;;;5.85;5.25;;;;;;;18.82;62.21;99020.78;4966020;28;20030;-71
2021/09/20 13:38:29;;;;;;;7.63;5.45;;;;;;;18.53;63.73;99020.34;4962168;28;20106;-73
2021/09/20 13:40:59;;;;;;;6.65;5.43;;;;;;;18.18;65.22;99014.94;4973132;28;20488;-75
2021/09/20 13:43:27;;;;;;;7.63;6.05;;;;;;;17.26;67.65;99011.94;4972258;28;20027;-73
2021/09/20 13:45:54;;;;;;;6.22;5.57;;;;;;;17.88;65.87;99013.69;4961741;28;20038;-75
2021/09/20 13:48:19;;;;;;;5.97;5.38;;;;;;;18.40;64.03;99013.97;4973022;28;20161;-74
2021/09/20 13:50:46;;;;;;;5.68;5.15;;;;;;;18.41;63.50;99015.66;4973374;28;20109;-71
2021/09/20 13:53:12;;;;;;;9.18;6.70;;;;;;;18.31;64.12;99014.38;4972221;28;20037;-74
2021/09/20 13:55:38;;;;;;;5.68;5.18;;;;;;;18.12;66.18;99012.59;4967306;28;20027;-74
2021/09/20 13:58:04;;;;;;;6.88;4.97;;;;;;;18.80;63.88;99012.13;4968147;28;20023;-76
2021/09/20 14:00:30;;;;;;;5.55;4.93;;;;;;;19.50;59.06;99006.03;4968263;28;20093;-73
2021/09/20 14:02:56;;;;;;;7.68;4.35;;;;;;;20.19;56.96;99000.69;4967104;28;20037;-74
2021/09/20 14:05:22;;;;;;;6.72;5.78;;;;;;;19.38;58.33;99009.25;4972418;28;20105;-74
2021/09/20 14:07:47;;;;;;;5.47;5.00;;;;;;;19.63;58.51;99004.53;4968227;28;20086;-74
2021/09/20 14:10:16;;;;;;;8.10;4.60;;;;;;;20.04;56.41;99001.50;4968067;28;20058;-77
2021/09/20 14:12:42;;;;;;;4.55;4.15;;;;;;;19.61;57.04;98995.00;4972431;28;20043;-74
2021/09/20 14:15:09;;;;;;;4.07;3.72;;;;;;;19.75;57.73;98998.63;4973025;28;20050;-74
2021/09/20 14:17:35;;;;;;;5.13;4.68;;;;;;;19.71;58.13;98997.06;4964665;28;20030;-73
2021/09/20 14:20:01;;;;;;;5.63;5.00;;;;;;;18.84;57.99;99006.66;4964067;28;20078;-78
2021/09/20 14:22:27;;;;;;;5.20;4.70;;;;;;;19.30;58.63;99011.44;4963873;28;20031;-79
2021/09/20 14:24:53;;;;;;;5.43;4.93;;;;;;;19.35;57.82;99004.19;4971828;28;20027;-75
2021/09/20 14:27:21;;;;;;;4.65;4.25;;;;;;;19.53;57.32;99000.59;4970790;28;20082;-77
2021/09/20 14:29:47;;;;;;;4.40;3.80;;;;;;;19.73;56.59;98999.63;4959657;28;20035;-74
2021/09/20 14:32:12;;;;;;;4.25;3.85;;;;;;;20.08;56.33;99000.41;4965974;28;20082;-78
2021/09/20 14:34:39;;;;;;;4.95;4.32;;;;;;;19.45;55.86;99001.00;4966129;28;20034;-74
2021/09/20 14:37:05;;;;;;;4.63;3.75;;;;;;;19.21;56.66;99008.34;4966166;28;20026;-80
2021/09/20 14:39:30;;;;;;;4.88;4.15;;;;;;;18.05;60.40;99008.53;4970386;28;20514;-73
2021/09/20 14:41:57;;;;;;;6.88;3.95;;;;;;;17.57;62.75;99007.13;4961133;28;20031;-73
2021/09/20 14:44:23;;;;;;;4.50;4.15;;;;;;;17.69;62.44;99009.19;4972009;28;20077;-73
2021/09/20 14:46:49;;;;;;;5.68;4.13;;;;;;;17.89;62.23;99011.00;4960328;28;20352;-73
2021/09/20 14:49:14;;;;;;;4.72;3.90;;;;;;;17.80;61.88;99015.81;4967353;28;20085;-75
2021/09/20 14:51:40;;;;;;;6.55;5.05;;;;;;;17.55;64.66;99006.34;4970904;28;20068;-75
2021/09/20 14:54:05;;;;;;;5.22;4.78;;;;;;;17.02;66.36;99014.66;4969729;28;20177;-72
2021/09/20 14:56:31;;;;;;;8.48;5.18;;;;;;;17.43;66.59;99007.69;4967356;28;20388;-77
2021/09/20 14:58:56;;;;;;;5.80;4.45;;;;;;;17.44;67.66;99016.41;4964619;28;20038;-74
2021/09/20 15:01:22;;;;;;;5.32;4.93;;;;;;;17.54;66.77;99012.47;4971400;28;20027;-75
2021/09/20 15:03:47;;;;;;;7.03;4.88;;;;;;;17.60;66.39;99027.97;4969748;28;20042;-74
2021/09/20 15:06:12;;;;;;;7.05;4.95;;;;;;;17.87;64.95;99019.84;4965843;28;20014;-73
2021/09/20 15:08:40;;;;;;;4.68;4.28;;;;;;;17.82;63.91;99021.81;4970503;28;20031;-72
2021/09/20 15:11:08;;;;;;;7.03;4.70;;;;;;;17.48;65.05;99028.47;4966195;28;20081;-72
2021/09/20 15:13:33;;;;;;;7.22;4.18;;;;;;;17.88;64.80;99026.78;4965392;28;20025;-72
2021/09/20 15:15:59;;;;;;;4.53;4.13;;;;;;;18.08;62.14;99023.28;4969627;28;20027;-72
2021/09/20 15:18:25;;;;;;;4.10;3.80;;;;;;;17.93;63.52;99036.16;4970151;28;20030;-77
2021/09/20 15:20:50;;;;;;;5.07;4.47;;;;;;;17.71;64.14;99043.22;4961911;28;20062;-73
2021/09/20 15:23:15;;;;;;;6.80;4.43;;;;;;;17.30;65.22;99039.69;4968852;28;20033;-73
2021/09/20 15:25:44;;;;;;;5.95;4.43;;;;;;;16.88;67.48;99048.38;4966954;28;20433;-75
2021/09/20 15:28:13;;;;;;;7.07;4.78;;;;;;;16.99;67.47;99055.81;4961289;28;20023;-76
2021/09/20 15:30:39;;;;;;;5.57;4.50;;;;;;;17.14;68.39;99050.81;4968087;28;20074;-73
2021/09/20 15:33:05;;;;;;;5.68;4.95;;;;;;;16.77;67.61;99056.63;4964831;28;20086;-73
2021/09/20 15:35:30;;;;;;;5.97;5.38;;;;;;;16.77;68.63;99061.00;4972034;28;20031;-78
2021/09/20 15:37:56;;;;;;;5.10;4.70;;;;;;;16.87;68.81;99062.38;4962213;28;20035;-79
2021/09/20 15:40:21;;;;;;;4.68;4.28;;;;;;;16.95;69.84;99053.31;4967060;28;20023;-78
2021/09/20 15:42:50;;;;;;;4.60;3.92;;;;;;;16.80;69.78;99055.69;4967317;28;20078;-78
2021/09/20 15:45:17;;;;;;;6.13;4.30;;;;;;;16.99;68.99;99058.44;4970673;28;20024;-73
2021/09/20 15:47:43;;;;;;;9.38;4.68;;;;;;;17.02;68.47;99059.16;4967821;28;20354;-72
2021/09/20 15:50:10;;;;;;;4.65;4.25;;;;;;;16.88;68.09;99066.72;4973779;28;20097;-72